createdAt,value
2023-03-07T08:25:24.911Z,52.13
2023-03-07T08:29:25.657Z,50.83
2023-03-07T08:33:24.480Z,49.98
2023-03-07T08:37:24.307Z,50.16
2023-03-07T08:41:25.691Z,50.58
2023-03-07T08:45:23.858Z,48.66
2023-03-07T08:49:23.690Z,48.94
2023-03-07T08:53:23.522Z,48.54
2023-03-07T08:57:23.657Z,48.83
2023-03-07T09:01:23.275Z,48.19
2023-03-07T09:05:23.155Z,48.38
2023-03-07T09:09:22.805Z,49.01
2023-03-07T09:13:23.087Z,49.47
2023-03-07T09:17:22.271Z,48.69
2023-03-07T09:21:22.160Z,48.60
2023-03-07T09:25:21.849Z,48.68
2023-03-07T09:29:21.617Z,49.29
2023-03-07T09:33:21.326Z,48.90
2023-03-07T09:37:21.163Z,50.41
2023-03-07T09:41:21.179Z,50.79
2023-03-07T09:45:21.224Z,52.11
2023-03-07T09:49:20.945Z,52.00
2023-03-07T09:53:21.188Z,51.23
2023-03-07T09:57:20.666Z,47.51
2023-03-07T10:01:20.710Z,50.16
2023-03-07T10:05:20.332Z,47.75
2023-03-07T10:09:20.211Z,49.11
2023-03-07T10:13:20.057Z,49.34
2023-03-07T10:17:19.950Z,50.18
2023-03-07T10:21:19.801Z,49.66
2023-03-07T10:25:19.687Z,49.23
2023-03-07T10:29:19.745Z,49.35
2023-03-07T10:33:19.683Z,49.73
2023-03-07T10:37:19.373Z,49.39
2023-03-07T10:41:19.213Z,48.19
2023-03-07T10:45:19.220Z,49.30
2023-03-07T10:49:19.205Z,48.20
2023-03-07T10:53:19.213Z,47.71
2023-03-07T10:57:18.627Z,46.03
2023-03-07T11:01:18.464Z,46.04
2023-03-07T11:05:18.247Z,45.26
2023-03-07T11:09:18.308Z,44.15
2023-03-07T11:13:17.966Z,46.07
2023-03-07T11:17:18.800Z,44.73
2023-03-07T11:21:17.720Z,46.01
2023-03-07T11:25:17.622Z,46.31
2023-03-07T11:29:17.458Z,46.59
2023-03-07T11:33:17.338Z,46.45
2023-03-07T11:37:17.238Z,46.04
2023-03-07T11:41:17.218Z,46.48
2023-03-07T11:45:16.877Z,44.90
2023-03-07T11:49:19.588Z,43.63
2023-03-07T11:53:16.275Z,43.43
2023-03-07T11:57:15.984Z,43.67
2023-03-07T12:01:15.746Z,44.79
2023-03-07T12:05:15.516Z,44.45
2023-03-07T12:09:15.255Z,44.44
2023-03-07T12:13:14.924Z,43.49
2023-03-07T12:17:14.604Z,42.60
2023-03-07T12:21:14.394Z,42.86
2023-03-07T12:25:14.285Z,43.28
2023-03-07T12:29:13.830Z,43.22
2023-03-07T12:34:52.999Z,40.87
2023-03-07T12:38:53.050Z,40.44
2023-03-07T12:42:52.867Z,40.66
2023-03-07T12:46:52.996Z,42.16
2023-03-07T12:50:53.520Z,43.11
2023-03-07T12:54:53.236Z,43.05
2023-03-07T12:58:53.396Z,45.02
2023-03-07T13:02:53.545Z,43.13
2023-03-07T13:06:53.694Z,44.01
2023-03-07T13:10:54.001Z,44.87
2023-03-07T13:14:54.140Z,43.32
2023-03-07T13:18:54.183Z,44.64
2023-03-07T13:22:54.569Z,43.00
2023-03-07T13:26:54.346Z,41.74
2023-03-07T13:30:54.371Z,42.34
2023-03-07T13:34:54.426Z,42.90
2023-03-07T13:38:54.525Z,44.43
2023-03-07T13:42:54.476Z,44.63
2023-03-07T13:46:54.556Z,45.07
2023-03-07T13:50:54.566Z,44.04
2023-03-07T13:54:54.659Z,43.20
2023-03-07T13:58:54.733Z,43.92
2023-03-07T14:02:54.834Z,43.64
2023-03-07T14:06:54.848Z,43.99
2023-03-07T14:10:54.878Z,44.83
2023-03-07T14:14:54.931Z,44.78
2023-03-07T14:18:55.041Z,45.23
2023-03-07T14:22:55.082Z,43.06
2023-03-07T14:26:55.194Z,45.09
2023-03-07T14:30:55.298Z,46.89
2023-03-07T14:34:55.319Z,47.27
2023-03-07T14:38:55.351Z,45.29
2023-03-07T14:42:55.449Z,45.70
2023-03-07T14:46:55.495Z,46.71
2023-03-07T14:50:55.678Z,46.21
2023-03-07T14:54:55.614Z,45.81
2023-03-07T14:58:55.766Z,46.39
2023-03-07T15:02:55.884Z,46.33
2023-03-07T15:06:56.017Z,45.90
2023-03-07T15:10:56.538Z,41.33
2023-03-07T15:14:56.562Z,43.77
2023-03-07T15:18:56.604Z,44.09
2023-03-07T15:22:57.160Z,44.99
2023-03-07T15:26:56.930Z,45.84
2023-03-07T15:30:57.069Z,46.42
2023-03-07T15:34:57.144Z,46.66
2023-03-07T15:38:57.320Z,45.21
2023-03-07T15:42:57.494Z,47.29
2023-03-07T15:46:57.702Z,48.99
2023-03-07T15:50:57.815Z,48.02
2023-03-07T15:54:58.015Z,48.55
2023-03-07T15:58:58.101Z,48.90
2023-03-07T16:02:58.360Z,49.18
2023-03-07T16:06:58.456Z,48.55
2023-03-07T16:10:58.622Z,48.90
2023-03-07T16:14:58.803Z,48.75
2023-03-07T16:18:59.006Z,48.76
2023-03-07T16:22:59.146Z,48.62
2023-03-07T16:26:59.285Z,49.10
2023-03-07T16:30:59.481Z,49.48
2023-03-07T16:34:59.650Z,49.24
2023-03-07T16:38:59.888Z,48.73
2023-03-07T16:43:00.055Z,49.52
2023-03-07T16:47:00.165Z,50.21
2023-03-07T16:51:00.349Z,49.91
2023-03-07T16:55:00.472Z,49.95
2023-03-07T16:59:00.663Z,49.73
2023-03-07T17:03:00.842Z,49.41
2023-03-07T17:07:04.818Z,50.30
2023-03-07T17:11:01.014Z,50.37
2023-03-07T17:15:01.051Z,50.52
2023-03-07T17:19:01.001Z,51.24
2023-03-07T17:23:01.026Z,51.42
2023-03-07T17:27:01.071Z,50.73
2023-03-07T17:31:01.042Z,51.34
2023-03-07T17:35:01.076Z,51.51
2023-03-07T17:39:01.159Z,51.61
2023-03-07T17:43:01.215Z,51.57
2023-03-07T17:47:01.370Z,51.28
2023-03-07T17:51:01.583Z,51.73
2023-03-07T17:55:01.778Z,52.00
2023-03-07T17:59:01.982Z,52.03
2023-03-07T18:03:02.398Z,49.46
2023-03-07T18:07:02.223Z,47.80
2023-03-07T18:11:02.230Z,46.53
2023-03-07T18:15:02.273Z,46.14
2023-03-07T18:19:04.830Z,45.19
2023-03-07T18:23:02.290Z,44.65
2023-03-07T18:27:02.308Z,44.05
2023-03-07T18:31:02.367Z,43.09
2023-03-07T18:35:02.383Z,42.68
2023-03-07T18:39:02.418Z,41.04
2023-03-07T18:43:02.486Z,40.02
2023-03-07T18:47:02.530Z,39.38
2023-03-07T18:51:02.498Z,38.90
2023-03-07T18:55:02.533Z,38.00
2023-03-07T18:59:02.567Z,37.36
2023-03-07T19:03:02.638Z,36.80
2023-03-07T19:07:02.700Z,36.31
2023-03-07T19:11:02.730Z,35.63
2023-03-07T19:15:02.779Z,35.35
2023-03-07T19:19:02.826Z,34.87
2023-03-07T19:23:02.974Z,34.90
2023-03-07T19:27:02.934Z,34.48
2023-03-07T19:31:02.967Z,34.11
2023-03-07T19:35:02.981Z,33.85
2023-03-07T19:39:03.020Z,33.42
2023-03-07T19:43:03.062Z,33.46
2023-03-07T19:47:03.093Z,33.14
2023-03-07T19:51:03.123Z,32.87
2023-03-07T19:55:03.141Z,32.68
2023-03-07T19:59:03.157Z,32.64
2023-03-07T20:03:03.197Z,32.41
2023-03-07T20:07:03.240Z,32.09
2023-03-07T20:11:09.416Z,31.99
2023-03-07T20:15:04.300Z,31.99
2023-03-07T20:19:03.344Z,31.88
2023-03-07T20:23:03.381Z,31.41
2023-03-07T20:27:03.427Z,31.42
2023-03-07T20:31:03.736Z,31.23
2023-03-07T20:35:04.031Z,31.46
2023-03-07T20:39:04.170Z,31.55
2023-03-07T20:43:04.382Z,31.50
2023-03-07T20:47:04.673Z,31.42
2023-03-07T20:51:04.861Z,31.48
2023-03-07T20:55:05.216Z,31.72
2023-03-07T20:59:05.405Z,31.49
2023-03-07T21:03:06.386Z,31.51
2023-03-07T21:07:05.806Z,31.18
2023-03-07T21:11:06.056Z,31.11
2023-03-07T21:15:06.311Z,30.98
2023-03-07T21:19:06.565Z,30.99
2023-03-07T21:23:06.828Z,30.83
2023-03-07T21:27:07.068Z,30.57
2023-03-07T21:31:07.381Z,30.86
2023-03-07T21:35:07.537Z,30.78
2023-03-07T21:39:08.055Z,30.75
2023-03-07T21:43:08.113Z,30.57
2023-03-07T21:47:08.343Z,30.61
2023-03-07T21:51:08.593Z,30.36
2023-03-07T21:55:08.798Z,30.58
2023-03-07T21:59:09.024Z,30.14
2023-03-07T22:03:09.699Z,30.34
2023-03-07T22:07:09.553Z,30.22
2023-03-07T22:11:09.829Z,30.20
2023-03-07T22:15:10.092Z,29.93
2023-03-07T22:19:10.385Z,30.02
2023-03-07T22:23:10.623Z,29.74
2023-03-07T22:27:10.922Z,29.94
2023-03-07T22:31:11.193Z,29.94
2023-03-07T22:35:11.222Z,29.84
2023-03-07T22:39:11.253Z,29.64
2023-03-07T22:43:11.238Z,29.44
2023-03-07T22:47:11.263Z,29.50
2023-03-07T22:51:11.348Z,29.52
2023-03-07T22:55:11.234Z,29.52
2023-03-07T22:59:11.293Z,29.48
2023-03-07T23:03:11.377Z,29.11
2023-03-07T23:07:11.306Z,29.17
2023-03-07T23:11:11.454Z,29.41
2023-03-07T23:15:11.509Z,29.27
2023-03-07T23:19:11.550Z,29.17
2023-03-07T23:23:11.550Z,29.17
2023-03-07T23:27:11.619Z,29.23
2023-03-07T23:31:11.655Z,29.04
2023-03-07T23:35:11.646Z,29.10
2023-03-07T23:39:11.670Z,28.97
2023-03-07T23:43:11.756Z,28.97
2023-03-07T23:47:11.765Z,28.84
2023-03-07T23:51:11.781Z,28.81
2023-03-07T23:55:11.885Z,28.92
2023-03-07T23:59:12.160Z,28.77
